Keene, CA

9:07 AM PDT on August 21, 2014 (GMT -0700)
Sandberg | Change Station
CLOSE
Current Station
Airport
Location: Sandberg,
Elevation: 4521 ft
Nearby Weather Stations

Elev 4521 ft 34.74 °N, 118.73 °W | Updated 19 minutes ago

Clear
Clear
73 °F
Feels Like 73 °F
N
6
Wind Variable Wind from NNW

Today
High -- | Low -- °F
--% Chance of Precip.
Yesterday
High -- | Low -- °F
Precip. -- in
6:18 AM 7:35 PM
Waning Crescent, 13% visible
Pressure 29.96 in
Visibility 10.0 miles
Clouds Clear
Dew Point 43 °F
Humidity 34%
Rainfall 0.00 in
Snow Depth Not available.
UV 3 out of 12
Pollen 7.50 out of 12
PM2.5 Good
Flu Activity Not available.
METAR KSDB 211548Z AUTO 34005KT 10SM CLR 23/06 A3011 RMK AO2 SLP144 T02280061

More Conditions Fewer Conditions

Pressure 29.96 in
Visibility 10.0 miles
Clouds Clear
Dew Point 43 °F
Humidity 34%
Rainfall 0.00 in
Snow Depth Not available.
UV 3 out of 12
Pollen 7.50 out of 12
PM2.5 Good
Flu Activity Not available.
METAR KSDB 211548Z AUTO 34005KT 10SM CLR 23/06 A3011 RMK AO2 SLP144 T02280061

More Conditions Fewer Conditions

10-Day Weather Forecast

Almanac

Astronomy

Aug. 21, 2014 Rise Set
Actual Time 6:18 AM PDT 7:35 PM PDT
Civil Twilight 5:52 AM PDT 8:02 PM PDT
Nautical Twilight 5:20 AM PDT 8:33 PM PDT
Astronomical Twilight 4:47 AM PDT 9:06 PM PDT
Moon 2:56 AM PDT 5:04 PM PDT
Length of Visible Light 14h 09m
Length of Day
13h 16m
Tomorrow will be 2m 2s shorter.
Waning Crescent, 13% of the Moon is Illuminated
Today
Waning Crescent
Aug 25
New
Sep 2
First Quarter
Sep 8
Full
Sep 15
Last Quarter

Today's Extremes

State Highs State Lows

Community

WunderPhotos

Upload Photos

1,745,950 photos uploaded!

Nearby

Air Quality

  Air Quality AQ Index Pollutant
Yesterday Good
OZONE
Yesterday Good
PM2.5
Current Good
PM2.5
Thursday Moderate
PM2.5
Friday Moderate
PM2.5
Saturday Moderate
PM2.5
Sunday Moderate
PM2.5
Monday Moderate
PM2.5

Snow Depth

Station Depth Elevation
Leavitt Lake 0 in 9400 ft
Leavitt Meadows 1 in 7200 ft
Poison Flat 0 in 7900 ft
Blue Lakes 0 in 8000 ft
Monitor Pass 1 in 8350 ft

Earthquake Activity

City Distance Mag. Time & Date
Malibu Beach, California 89 miles 3.4 10:03 AM PDT
2014-08-15
Kettleman City, California 97 miles 2.9 11:32 PM PDT
2014-08-14
Minimum magnitude displayed is 2.5.

Coastal Water Temperatures

Place Temperature
No Stations Reporting

Nearby Weather Stations